Time;durP1;ratioP1;P1;durP2;ratioP2;P2;SDS_P1;SDS_P2;PMS_P1;PMS_P2;Temp;Humidity;BMP_temperature;BMP_pressure;BME280_temperature;BME280_humidity;BME280_pressure;Samples;Min_cycle;Max_cycle;Signal;HPM_P1;HPM_P2
2023/05/05 00:01:46;;;;;;;1.40;1.23;;;;;;;22.11;36.19;100512.06;4550638;28;20064;-64
2023/05/05 00:03:56;;;;;;;1.42;1.33;;;;;;;22.05;36.18;100504.97;4552221;28;20028;-64
2023/05/05 00:06:07;;;;;;;1.23;1.13;;;;;;;22.12;36.67;100513.72;4536522;28;20143;-64
2023/05/05 00:08:17;;;;;;;1.40;1.30;;;;;;;22.07;36.49;100509.13;4552384;28;20032;-64
2023/05/05 00:10:28;;;;;;;1.30;1.20;;;;;;;22.08;36.25;100509.97;4553613;28;20039;-64
2023/05/05 00:12:38;;;;;;;1.35;1.25;;;;;;;22.08;36.68;100507.94;4550696;28;20060;-64
2023/05/05 00:14:48;;;;;;;1.30;1.20;;;;;;;22.10;36.21;100508.34;4534150;28;20041;-64
2023/05/05 00:16:59;;;;;;;1.30;1.20;;;;;;;22.08;36.38;100507.94;4550422;28;20397;-64
2023/05/05 00:19:09;;;;;;;2.13;1.20;;;;;;;22.08;36.46;100499.31;4552338;28;20044;-64
2023/05/05 00:21:20;;;;;;;1.10;1.00;;;;;;;22.08;36.56;100499.31;4550428;28;20033;-64
2023/05/05 00:23:30;;;;;;;1.30;1.20;;;;;;;22.08;36.14;100501.34;4553084;28;20110;-64
2023/05/05 00:25:41;;;;;;;1.20;1.10;;;;;;;22.06;36.26;100490.22;4532344;28;20025;-64
2023/05/05 00:27:51;;;;;;;1.30;1.20;;;;;;;22.06;36.55;100487.34;4535133;28;20097;-64
2023/05/05 00:30:02;;;;;;;1.20;1.10;;;;;;;21.94;36.47;100464.53;4550439;28;20060;-64
2023/05/05 00:32:12;;;;;;;1.20;1.10;;;;;;;22.08;36.40;100489.84;4551748;28;20029;-64
2023/05/05 00:34:23;;;;;;;1.25;1.15;;;;;;;22.07;36.40;100491.88;4552965;27;20149;-64
2023/05/05 00:36:33;;;;;;;1.40;1.20;;;;;;;22.04;36.04;100478.25;4552930;28;20092;-64
2023/05/05 00:38:44;;;;;;;1.27;1.15;;;;;;;22.05;35.94;100476.22;4552526;28;20757;-64
2023/05/05 00:40:54;;;;;;;1.55;1.20;;;;;;;22.00;36.28;100473.66;4552563;28;20029;-64
2023/05/05 00:43:05;;;;;;;1.30;1.20;;;;;;;22.07;36.37;100486.13;4553726;28;20036;-64
2023/05/05 00:45:17;;;;;;;1.20;1.10;;;;;;;22.07;36.17;100485.31;4552425;28;20032;-64
2023/05/05 00:47:27;;;;;;;1.30;1.20;;;;;;;22.06;35.93;100483.63;4551382;28;20105;-64
2023/05/05 00:49:38;;;;;;;1.48;1.20;;;;;;;22.01;35.96;100472.44;4550954;28;20883;-64
2023/05/05 00:51:48;;;;;;;1.50;1.40;;;;;;;22.05;36.26;100476.22;4553003;28;20036;-64
2023/05/05 00:54:00;;;;;;;1.20;1.10;;;;;;;22.05;36.15;100477.06;4534381;28;20029;-64
2023/05/05 00:56:15;;;;;;;1.50;1.35;;;;;;;22.05;36.02;100473.34;4550472;28;20133;-64
2023/05/05 00:58:27;;;;;;;1.30;1.20;;;;;;;22.05;35.97;100476.22;4531688;28;20060;-64
2023/05/05 01:00:39;;;;;;;1.25;1.15;;;;;;;22.05;35.94;100474.19;4547993;28;20049;-64
2023/05/05 01:02:50;;;;;;;1.40;1.30;;;;;;;22.04;35.75;100469.63;4549874;28;20072;-64
2023/05/05 01:05:02;;;;;;;1.40;1.30;;;;;;;22.06;35.96;100475.00;4552802;27;20038;-64
2023/05/05 01:07:21;;;;;;;1.30;1.20;;;;;;;22.05;36.19;100470.47;4550169;28;20105;-64
2023/05/05 01:09:46;;;;;;;1.25;1.15;;;;;;;22.04;35.87;100465.94;4552578;28;20036;-64
2023/05/05 01:12:37;;;;;;;1.30;1.20;;;;;;;22.05;36.05;100464.72;4552041;28;20043;-64
2023/05/05 01:15:09;;;;;;;1.83;1.30;;;;;;;22.04;35.84;100457.34;4526988;28;20332;-64
2023/05/05 01:17:27;;;;;;;1.25;1.15;;;;;;;22.03;36.05;100449.91;4548797;28;20040;-64
2023/05/05 01:20:02;;;;;;;1.30;1.20;;;;;;;22.04;35.95;100452.38;4550092;28;20082;-64
2023/05/05 01:22:18;;;;;;;1.30;1.20;;;;;;;21.98;35.55;100438.72;4548709;28;20089;-64
2023/05/05 01:24:44;;;;;;;1.25;1.15;;;;;;;22.03;35.84;100445.00;4551678;28;20273;-64
2023/05/05 01:27:18;;;;;;;1.30;1.20;;;;;;;22.02;35.71;100443.31;4550701;28;20029;-64
2023/05/05 01:29:47;;;;;;;1.20;1.10;;;;;;;22.03;35.66;100435.53;4549644;28;20128;-64
2023/05/05 01:32:09;;;;;;;1.15;1.05;;;;;;;22.00;35.54;100436.28;4551125;28;20041;-64
2023/05/05 01:34:25;;;;;;;1.40;1.30;;;;;;;22.00;35.40;100427.69;4535569;28;20071;-64
2023/05/05 01:36:41;;;;;;;1.40;1.20;;;;;;;22.00;35.76;100431.38;4551768;28;20044;-65
2023/05/05 01:38:56;;;;;;;1.37;1.10;;;;;;;22.02;35.48;100437.56;4550940;28;20151;-64
2023/05/05 01:41:16;;;;;;;1.30;1.20;;;;;;;22.01;35.57;100435.91;4536109;28;20575;-64
2023/05/05 01:43:29;;;;;;;1.13;1.10;;;;;;;21.99;35.67;100431.78;4551296;28;20024;-64
2023/05/05 01:45:42;;;;;;;1.42;1.10;;;;;;;22.01;35.81;100441.66;4550182;28;20096;-64
2023/05/05 01:47:55;;;;;;;1.30;1.20;;;;;;;22.01;35.80;100429.31;4535763;28;20039;-64
2023/05/05 01:50:07;;;;;;;1.60;1.30;;;;;;;22.00;35.83;100433.41;4549921;28;20024;-64
2023/05/05 01:52:18;;;;;;;1.30;1.20;;;;;;;21.99;35.42;100421.09;4552651;28;20901;-65
2023/05/05 01:54:32;;;;;;;1.30;1.15;;;;;;;21.96;35.43;100416.09;4552058;28;20045;-64
2023/05/05 01:56:47;;;;;;;1.50;1.40;;;;;;;21.99;35.88;100417.41;4549319;28;20273;-64
2023/05/05 01:59:00;;;;;;;1.25;1.15;;;;;;;21.99;35.73;100421.09;4522193;28;20209;-64
2023/05/05 02:01:12;;;;;;;1.52;1.35;;;;;;;21.86;35.97;100411.00;4538845;28;20040;-64
2023/05/05 02:03:24;;;;;;;1.45;1.23;;;;;;;21.97;35.63;100429.28;4540690;28;20043;-64
2023/05/05 02:05:37;;;;;;;1.30;1.20;;;;;;;21.98;35.85;100435.84;4549190;28;20653;-64
2023/05/05 02:07:50;;;;;;;1.48;1.35;;;;;;;21.98;35.88;100430.94;4530033;28;20081;-64
2023/05/05 02:10:03;;;;;;;1.40;1.30;;;;;;;21.99;35.80;100431.78;4549668;28;20024;-64
2023/05/05 02:12:15;;;;;;;1.30;1.20;;;;;;;21.98;35.73;100428.06;4550893;28;20036;-64
2023/05/05 02:14:28;;;;;;;1.30;1.20;;;;;;;21.96;35.68;100418.97;4522188;28;20033;-64
2023/05/05 02:16:41;;;;;;;1.30;1.20;;;;;;;21.96;35.82;100418.97;4541418;28;20178;-64
2023/05/05 02:18:53;;;;;;;1.30;1.20;;;;;;;21.95;35.56;100419.34;4534571;28;20790;-64
2023/05/05 02:21:05;;;;;;;1.30;1.20;;;;;;;21.96;35.50;100427.59;4529655;28;20068;-64
2023/05/05 02:23:16;;;;;;;2.08;1.40;;;;;;;21.94;35.36;100420.59;4549865;28;20025;-63
2023/05/05 02:25:35;;;;;;;1.67;1.40;;;;;;;21.97;35.63;100419.81;4549897;28;20041;-63
2023/05/05 02:27:47;;;;;;;1.30;1.10;;;;;;;21.95;35.66;100408.69;4550065;28;20036;-64
2023/05/05 02:30:05;;;;;;;1.40;1.30;;;;;;;21.94;35.49;100412.81;4549414;28;20079;-64
2023/05/05 02:32:22;;;;;;;1.45;1.23;;;;;;;21.95;35.42;100410.75;4554059;28;20062;-64
2023/05/05 02:34:37;;;;;;;1.85;1.50;;;;;;;21.95;35.47;100414.44;4552254;28;20037;-64
2023/05/05 02:36:53;;;;;;;1.30;1.20;;;;;;;21.95;35.38;100408.69;4534401;28;20033;-64
2023/05/05 02:39:13;;;;;;;1.40;1.30;;;;;;;21.92;35.32;100408.63;4535965;28;20028;-65
2023/05/05 02:41:27;;;;;;;1.40;1.30;;;;;;;21.94;35.26;100409.09;4536518;28;20037;-64
2023/05/05 02:43:41;;;;;;;1.40;1.27;;;;;;;21.92;35.63;100412.34;4550110;28;20044;-63
2023/05/05 02:45:51;;;;;;;1.35;1.10;;;;;;;21.94;35.62;100421.41;4533406;28;20129;-64
2023/05/05 02:48:03;;;;;;;1.00;1.00;;;;;;;21.92;35.46;100409.47;4550882;28;20044;-64
2023/05/05 02:50:17;;;;;;;1.38;1.27;;;;;;;21.94;35.62;100415.69;4542952;28;20063;-63
2023/05/05 02:52:42;;;;;;;1.30;1.20;;;;;;;21.93;35.62;100414.00;4538055;28;20037;-64
2023/05/05 02:54:54;;;;;;;1.25;1.15;;;;;;;21.94;35.67;100418.56;4538138;28;20029;-64
2023/05/05 02:57:04;;;;;;;1.35;1.25;;;;;;;21.92;35.62;100418.09;4540572;28;20064;-64
2023/05/05 02:59:23;;;;;;;1.20;1.10;;;;;;;21.94;35.59;100420.59;4509396;28;20033;-63
2023/05/05 03:01:37;;;;;;;1.30;1.20;;;;;;;21.94;35.15;100417.72;4533040;28;20044;-64
2023/05/05 03:04:08;;;;;;;1.23;1.13;;;;;;;21.92;35.22;100411.50;4537635;28;20741;-64
2023/05/05 03:06:26;;;;;;;1.20;1.10;;;;;;;21.93;35.32;100422.63;4534475;28;20033;-64
2023/05/05 03:08:48;;;;;;;1.23;1.13;;;;;;;21.93;35.14;100422.63;4532367;28;20037;-64
2023/05/05 03:11:17;;;;;;;1.20;1.10;;;;;;;21.91;35.63;100419.28;4535373;28;20176;-64
2023/05/05 03:13:28;;;;;;;1.98;1.30;;;;;;;21.91;35.55;100419.28;4518262;28;20116;-64
2023/05/05 03:15:43;;;;;;;1.30;1.20;;;;;;;21.92;35.79;100426.72;4550795;28;20080;-64
2023/05/05 03:17:56;;;;;;;1.30;1.20;;;;;;;21.92;35.77;100426.72;4534782;28;20844;-64
2023/05/05 03:20:09;;;;;;;1.35;1.25;;;;;;;21.89;36.17;100426.63;4534478;28;20147;-64
2023/05/05 03:22:23;;;;;;;1.50;1.40;;;;;;;21.89;35.18;100418.00;4535933;28;20542;-64
2023/05/05 03:24:34;;;;;;;1.45;1.35;;;;;;;21.92;35.61;100423.00;4533233;28;20398;-64
2023/05/05 03:26:49;;;;;;;1.40;1.30;;;;;;;21.90;35.70;100429.13;4538703;28;20028;-64
2023/05/05 03:29:02;;;;;;;1.52;1.42;;;;;;;21.88;35.75;100425.78;4534095;28;20120;-64
2023/05/05 03:31:15;;;;;;;1.40;1.30;;;;;;;21.87;36.05;100426.19;4532984;28;20033;-64
2023/05/05 03:33:26;;;;;;;1.40;1.30;;;;;;;21.88;36.20;100425.78;4538819;28;20025;-64
2023/05/05 03:35:38;;;;;;;1.25;1.15;;;;;;;21.87;36.11;100424.13;4536447;28;20033;-64
2023/05/05 03:37:51;;;;;;;1.50;1.38;;;;;;;21.89;36.24;100441.00;4534309;28;20048;-64
2023/05/05 03:40:02;;;;;;;1.50;1.40;;;;;;;21.87;36.04;100435.63;4537927;28;20382;-64
2023/05/05 03:42:14;;;;;;;1.92;1.30;;;;;;;21.86;35.82;100431.13;4525184;28;20974;-63
2023/05/05 03:44:24;;;;;;;1.40;1.30;;;;;;;21.85;35.60;100429.44;4537728;28;20040;-64
2023/05/05 03:46:35;;;;;;;1.27;1.17;;;;;;;21.87;35.89;100429.88;4534354;28;20033;-64
2023/05/05 03:48:46;;;;;;;1.45;1.33;;;;;;;21.87;35.68;100438.50;4552366;28;20051;-64
2023/05/05 03:50:56;;;;;;;1.40;1.23;;;;;;;21.86;35.12;100433.97;4536900;28;20120;-64
2023/05/05 03:53:09;;;;;;;1.35;1.25;;;;;;;21.88;35.35;100442.22;4551541;28;20046;-64
2023/05/05 03:55:20;;;;;;;1.25;1.15;;;;;;;21.85;35.41;100443.78;4535076;28;20097;-64
2023/05/05 03:57:30;;;;;;;1.45;1.30;;;;;;;21.88;36.09;100442.22;4552609;28;20495;-64
2023/05/05 03:59:41;;;;;;;1.48;1.23;;;;;;;21.87;35.65;100452.88;4535522;28;20481;-64
2023/05/05 04:01:51;;;;;;;1.40;1.30;;;;;;;21.82;35.76;100438.81;4553813;28;20837;-64
2023/05/05 04:04:05;;;;;;;1.92;1.60;;;;;;;21.80;35.50;100429.72;4533167;28;20100;-64
2023/05/05 04:06:15;;;;;;;1.40;1.30;;;;;;;21.86;35.35;100442.59;4529772;28;20133;-64
2023/05/05 04:08:26;;;;;;;1.30;1.20;;;;;;;21.86;35.79;100445.47;4535054;28;20083;-64
2023/05/05 04:10:36;;;;;;;1.45;1.25;;;;;;;21.83;35.87;100440.50;4539819;28;20037;-64
2023/05/05 04:12:46;;;;;;;1.58;1.20;;;;;;;21.81;35.63;100437.16;4550177;28;20025;-64
2023/05/05 04:14:57;;;;;;;1.30;1.20;;;;;;;21.86;35.57;100450.38;4539234;28;20044;-65
2023/05/05 04:17:08;;;;;;;1.40;1.30;;;;;;;21.85;35.56;100442.97;4532459;28;20383;-64
2023/05/05 04:19:19;;;;;;;1.30;1.20;;;;;;;21.80;35.85;100441.22;4537569;28;20567;-64
2023/05/05 04:21:30;;;;;;;2.97;1.30;;;;;;;21.85;36.03;100449.53;4531602;28;20068;-64
2023/05/05 04:23:41;;;;;;;1.58;1.45;;;;;;;21.70;36.25;100426.63;4537051;28;20753;-64
2023/05/05 04:25:51;;;;;;;1.42;1.33;;;;;;;21.84;35.87;100452.78;4540161;28;20335;-64
2023/05/05 04:28:02;;;;;;;1.40;1.30;;;;;;;21.83;35.74;100452.00;4552064;28;20768;-64
2023/05/05 04:30:13;;;;;;;1.80;1.40;;;;;;;21.83;36.06;100459.75;4550758;28;20732;-64
2023/05/05 04:32:24;;;;;;;1.50;1.40;;;;;;;21.81;35.66;100453.56;4532518;28;20072;-63
2023/05/05 04:34:35;;;;;;;1.20;1.10;;;;;;;21.81;35.97;100454.41;4532032;28;20079;-63
2023/05/05 04:36:45;;;;;;;1.67;1.35;;;;;;;21.80;36.13;100449.03;4551350;28;20044;-64
2023/05/05 04:38:56;;;;;;;1.38;1.25;;;;;;;21.83;36.27;100465.50;4551624;28;20190;-64
2023/05/05 04:41:07;;;;;;;2.17;1.33;;;;;;;21.78;36.21;100455.16;4535902;28;20149;-64
2023/05/05 04:43:19;;;;;;;1.30;1.20;;;;;;;21.82;36.44;100460.94;4519647;28;20033;-64
2023/05/05 04:45:30;;;;;;;1.52;1.35;;;;;;;21.79;36.54;100462.56;4535952;28;20139;-64
2023/05/05 04:47:41;;;;;;;1.58;1.48;;;;;;;21.65;37.10;100445.00;4541975;28;20440;-65
2023/05/05 04:49:54;;;;;;;1.52;1.40;;;;;;;21.82;37.63;100476.16;4552521;28;20029;-63
2023/05/05 04:52:05;;;;;;;1.45;1.30;;;;;;;21.83;38.54;100472.09;4534781;28;20617;-63
2023/05/05 04:54:16;;;;;;;1.50;1.40;;;;;;;21.80;39.43;100467.09;4535078;28;20147;-62
2023/05/05 04:56:29;;;;;;;1.90;1.70;;;;;;;21.82;40.27;100470.41;4533291;28;20471;-62
2023/05/05 04:58:40;;;;;;;1.35;1.25;;;;;;;21.81;40.14;100465.06;4549383;28;20025;-62
2023/05/05 05:00:51;;;;;;;1.55;1.40;;;;;;;21.82;41.30;100476.16;4535301;28;20724;-62
2023/05/05 05:03:03;;;;;;;1.60;1.50;;;;;;;21.81;41.48;100476.53;4536950;28;20091;-63
2023/05/05 05:05:13;;;;;;;2.17;1.50;;;;;;;21.81;42.26;100471.63;4533124;28;20033;-63
2023/05/05 05:07:24;;;;;;;1.77;1.48;;;;;;;21.80;42.18;100467.09;4552102;28;20024;-63
2023/05/05 05:09:35;;;;;;;1.67;1.55;;;;;;;21.80;42.35;100469.97;4553255;28;20045;-63
2023/05/05 05:11:46;;;;;;;1.55;1.45;;;;;;;21.81;42.17;100483.13;4519456;28;20041;-63
2023/05/05 05:13:57;;;;;;;1.55;1.45;;;;;;;21.79;42.67;100485.53;4550884;28;20048;-63
2023/05/05 05:16:07;;;;;;;1.50;1.40;;;;;;;21.78;43.18;100486.75;4534785;28;20107;-63
2023/05/05 05:18:18;;;;;;;2.58;1.60;;;;;;;21.79;43.97;100485.53;4533103;28;20033;-63
2023/05/05 05:20:30;;;;;;;1.77;1.50;;;;;;;21.81;43.98;100494.63;4525119;28;20033;-63
2023/05/05 05:22:41;;;;;;;1.60;1.50;;;;;;;21.80;43.81;100495.00;4525129;28;20675;-63
2023/05/05 05:24:55;;;;;;;1.63;1.52;;;;;;;21.80;44.52;100495.81;4531388;28;20564;-63
2023/05/05 05:27:08;;;;;;;1.92;1.70;;;;;;;21.76;44.21;100486.31;4537040;28;20041;-63
2023/05/05 05:29:19;;;;;;;1.95;1.50;;;;;;;21.79;44.52;100490.44;4535971;28;21324;-63
2023/05/05 05:31:30;;;;;;;1.80;1.70;;;;;;;21.78;45.22;100501.13;4548394;28;20028;-63
2023/05/05 05:33:41;;;;;;;1.95;1.73;;;;;;;21.77;45.31;100490.81;4533808;28;20021;-63
2023/05/05 05:35:51;;;;;;;2.10;1.50;;;;;;;21.77;45.67;100490.81;4537542;28;20040;-63
2023/05/05 05:38:04;;;;;;;1.60;1.50;;;;;;;21.79;45.82;100508.53;4533428;28;20567;-63
2023/05/05 05:40:15;;;;;;;1.83;1.67;;;;;;;21.79;46.12;100513.44;4551810;28;20040;-63
2023/05/05 05:42:25;;;;;;;1.67;1.58;;;;;;;21.79;46.50;100508.53;4531721;28;20043;-63
2023/05/05 05:44:36;;;;;;;2.00;1.77;;;;;;;21.80;46.68;100509.38;4523367;28;20049;-63
2023/05/05 05:46:47;;;;;;;1.70;1.60;;;;;;;21.77;46.79;100510.94;4536840;28;20758;-63
2023/05/05 05:48:59;;;;;;;1.50;1.40;;;;;;;21.78;47.04;100514.66;4532498;28;20143;-63
2023/05/05 05:51:09;;;;;;;1.50;1.40;;;;;;;21.79;47.18;100514.28;4536309;28;20090;-63
2023/05/05 05:53:20;;;;;;;1.77;1.50;;;;;;;21.78;47.44;100515.50;4550537;28;20480;-63
2023/05/05 05:55:31;;;;;;;1.70;1.60;;;;;;;21.77;48.05;100516.69;4535233;28;20028;-63
2023/05/05 05:57:42;;;;;;;1.75;1.60;;;;;;;21.76;48.04;100514.19;4548306;28;20071;-63
2023/05/05 05:59:54;;;;;;;2.75;1.70;;;;;;;21.75;48.16;100519.13;4540046;28;20091;-63
2023/05/05 06:02:06;;;;;;;1.63;1.52;;;;;;;21.77;48.54;100525.31;4533362;28;20381;-63
2023/05/05 06:04:17;;;;;;;2.05;1.85;;;;;;;21.74;48.81;100517.41;4535238;28;20038;-63
2023/05/05 06:06:27;;;;;;;1.73;1.63;;;;;;;21.72;48.65;100519.81;4544695;28;20021;-63
2023/05/05 06:08:38;;;;;;;1.58;1.48;;;;;;;21.76;48.72;100529.41;4535670;28;20908;-63
2023/05/05 06:10:48;;;;;;;1.80;1.50;;;;;;;21.76;48.65;100535.16;4536694;28;20033;-63
2023/05/05 06:13:02;;;;;;;1.92;1.70;;;;;;;21.75;48.60;100533.50;4526300;28;20605;-63
2023/05/05 06:15:14;;;;;;;2.00;1.80;;;;;;;21.78;48.76;100534.75;4539242;28;20172;-63
2023/05/05 06:17:25;;;;;;;2.40;1.83;;;;;;;21.77;48.80;100536.78;4538757;28;20175;-63
2023/05/05 06:19:38;;;;;;;1.65;1.45;;;;;;;21.77;48.53;100533.09;4539839;28;20829;-63
2023/05/05 06:21:49;;;;;;;1.92;1.77;;;;;;;21.72;48.54;100519.00;4536027;28;20067;-63
2023/05/05 06:24:00;;;;;;;2.60;1.92;;;;;;;21.76;48.56;100531.44;4552237;28;20039;-63
2023/05/05 06:26:10;;;;;;;1.80;1.70;;;;;;;21.77;48.89;100525.31;4512137;28;20034;-63
2023/05/05 06:28:21;;;;;;;2.45;2.03;;;;;;;21.75;48.78;100530.63;4555666;28;20131;-63
2023/05/05 06:30:31;;;;;;;2.25;2.00;;;;;;;21.71;49.09;100518.16;4555007;28;20090;-63
2023/05/05 06:32:42;;;;;;;2.20;2.00;;;;;;;21.76;48.97;100529.41;4552441;28;20036;-63
2023/05/05 06:34:52;;;;;;;1.95;1.77;;;;;;;21.71;49.03;100523.91;4555305;28;20032;-63
2023/05/05 06:37:02;;;;;;;2.20;2.00;;;;;;;21.74;49.32;100531.78;4554081;28;20039;-64
2023/05/05 06:39:13;;;;;;;2.38;1.98;;;;;;;21.78;49.42;100544.22;4553164;28;20037;-65
2023/05/05 06:41:23;;;;;;;2.20;2.00;;;;;;;21.76;49.45;100543.75;4551642;28;20785;-65
2023/05/05 06:43:34;;;;;;;2.65;1.95;;;;;;;21.77;49.25;100545.41;4554647;28;20039;-63
2023/05/05 06:45:50;;;;;;;2.50;2.10;;;;;;;21.75;50.03;100542.09;4539484;28;20099;-64
2023/05/05 06:48:00;;;;;;;2.45;2.10;;;;;;;21.75;50.18;100538.34;4553580;28;20227;-64
2023/05/05 06:50:11;;;;;;;3.33;2.10;;;;;;;21.72;50.56;100537.06;4556593;28;20052;-63
2023/05/05 06:52:21;;;;;;;2.95;2.10;;;;;;;21.76;50.55;100545.78;4555134;28;20021;-63
2023/05/05 06:54:32;;;;;;;2.97;2.30;;;;;;;21.76;50.61;100545.78;4536012;28;20938;-63
2023/05/05 06:56:42;;;;;;;3.15;2.30;;;;;;;21.77;50.74;100553.22;4554715;28;20187;-63
2023/05/05 06:58:53;;;;;;;2.60;2.40;;;;;;;21.75;50.86;100552.72;4555826;28;20068;-63
2023/05/05 07:01:03;;;;;;;2.88;2.55;;;;;;;21.72;50.69;100542.81;4539041;28;20096;-63
2023/05/05 07:03:14;;;;;;;2.58;2.38;;;;;;;21.76;51.40;100558.13;4521142;28;20046;-63
2023/05/05 07:05:24;;;;;;;2.70;2.50;;;;;;;21.78;51.57;100557.75;4553834;28;20111;-64
2023/05/05 07:07:35;;;;;;;3.53;2.70;;;;;;;21.78;51.47;100558.59;4554327;28;20475;-63
2023/05/05 07:09:46;;;;;;;2.72;2.53;;;;;;;21.69;50.87;100557.91;4552689;28;20024;-63
2023/05/05 07:11:56;;;;;;;3.13;2.80;;;;;;;21.71;51.39;100564.13;4536449;28;20037;-62
2023/05/05 07:14:06;;;;;;;2.88;2.67;;;;;;;21.76;51.92;100561.00;4553773;28;20029;-63
2023/05/05 07:16:17;;;;;;;3.90;2.90;;;;;;;21.73;51.57;100555.13;4552662;28;20044;-63
2023/05/05 07:18:27;;;;;;;3.40;3.00;;;;;;;21.78;52.38;100575.00;4552815;28;20078;-66
2023/05/05 07:20:38;;;;;;;3.25;2.90;;;;;;;21.77;52.01;100579.06;4539538;28;20036;-63
2023/05/05 07:22:49;;;;;;;3.30;3.00;;;;;;;21.72;51.76;100568.66;4554096;28;20148;-63
2023/05/05 07:24:59;;;;;;;3.47;3.00;;;;;;;21.77;51.86;100579.88;4550265;28;20538;-63
2023/05/05 07:27:10;;;;;;;4.25;3.20;;;;;;;21.74;51.30;100572.00;4538624;28;20021;-63
2023/05/05 07:29:20;;;;;;;3.13;2.72;;;;;;;21.78;51.43;100587.31;4551041;28;20044;-63
2023/05/05 07:31:31;;;;;;;3.22;2.92;;;;;;;21.74;51.21;100579.81;4535307;28;20781;-63
2023/05/05 07:33:41;;;;;;;3.20;2.90;;;;;;;21.75;50.69;100581.47;4552785;28;20037;-62
2023/05/05 07:35:51;;;;;;;3.08;2.80;;;;;;;21.76;50.99;100583.97;4554451;28;20485;-63
2023/05/05 07:38:02;;;;;;;3.05;2.78;;;;;;;21.77;50.63;100590.56;4554986;28;20591;-63
2023/05/05 07:40:13;;;;;;;3.15;2.85;;;;;;;21.77;50.44;100585.63;4538856;28;20033;-63
2023/05/05 07:42:23;;;;;;;3.10;2.80;;;;;;;21.74;50.99;100582.69;4553679;28;20033;-64
2023/05/05 07:44:34;;;;;;;3.40;3.08;;;;;;;21.76;51.34;100586.84;4554299;28;20037;-64
2023/05/05 07:46:44;;;;;;;3.38;3.08;;;;;;;21.72;51.05;100588.75;4553032;28;20033;-63
2023/05/05 07:48:55;;;;;;;3.58;3.03;;;;;;;21.77;51.45;100600.00;4552419;28;20043;-64
2023/05/05 07:51:06;;;;;;;3.00;2.65;;;;;;;21.76;51.87;100601.22;4551646;28;20469;-63
2023/05/05 07:53:16;;;;;;;3.10;2.80;;;;;;;21.79;51.52;100608.25;4551972;28;20447;-64
2023/05/05 07:55:26;;;;;;;3.00;2.70;;;;;;;21.78;51.44;100603.72;4525407;28;20520;-64
2023/05/05 07:57:37;;;;;;;2.92;2.63;;;;;;;21.80;51.33;100607.88;4539566;28;20314;-63
2023/05/05 07:59:48;;;;;;;2.90;2.60;;;;;;;21.78;50.89;100607.44;4552137;28;20044;-63
2023/05/05 08:01:58;;;;;;;3.00;2.70;;;;;;;21.76;51.06;100612.72;4553207;28;20040;-64
2023/05/05 08:04:09;;;;;;;2.88;2.58;;;;;;;21.75;51.04;100607.31;4550053;28;20056;-63
2023/05/05 08:06:20;;;;;;;2.60;2.40;;;;;;;21.77;50.53;100611.50;4549822;28;20041;-63
2023/05/05 08:08:31;;;;;;;2.95;2.50;;;;;;;21.76;50.80;100612.72;4550211;28;20049;-63
2023/05/05 08:10:41;;;;;;;2.80;2.50;;;;;;;21.80;50.56;100612.81;4551818;28;20037;-63
2023/05/05 08:12:53;;;;;;;2.72;2.53;;;;;;;21.79;50.32;100614.84;4541690;28;20036;-63
2023/05/05 08:15:05;;;;;;;2.60;2.40;;;;;;;21.78;50.08;100610.31;4550694;28;20579;-63
2023/05/05 08:17:15;;;;;;;2.58;2.38;;;;;;;21.78;50.58;100613.19;4551987;28;20082;-63
2023/05/05 08:19:26;;;;;;;2.67;2.42;;;;;;;21.79;50.06;100617.72;4553448;28;20040;-63
2023/05/05 08:21:36;;;;;;;3.00;2.60;;;;;;;21.80;51.28;100619.38;4534998;28;20037;-63
2023/05/05 08:23:47;;;;;;;2.60;2.25;;;;;;;21.80;51.13;100619.38;4533412;28;20017;-63
2023/05/05 08:25:57;;;;;;;2.47;2.20;;;;;;;21.80;50.94;100615.69;4535735;28;20033;-63
2023/05/05 08:28:07;;;;;;;2.60;2.40;;;;;;;21.80;51.26;100630.03;4551162;28;20056;-62
2023/05/05 08:30:20;;;;;;;2.63;2.33;;;;;;;21.81;50.76;100628.81;4554232;28;20410;-63
2023/05/05 08:32:31;;;;;;;2.75;2.25;;;;;;;21.79;50.88;100629.19;4535248;28;20028;-62
2023/05/05 08:34:41;;;;;;;2.50;2.30;;;;;;;21.80;50.83;100633.72;4554419;28;20036;-63
2023/05/05 08:36:51;;;;;;;2.30;2.10;;;;;;;21.78;50.01;100633.28;4553071;28;20112;-63
2023/05/05 08:39:02;;;;;;;2.30;2.10;;;;;;;21.81;50.23;100637.44;4554655;28;20138;-63
2023/05/05 08:41:16;;;;;;;2.30;2.10;;;;;;;21.79;50.47;100639.84;4554281;28;20039;-63
2023/05/05 08:43:27;;;;;;;1.90;1.80;;;;;;;21.82;49.37;100639.09;4552190;28;20036;-61
2023/05/05 08:45:40;;;;;;;2.05;1.80;;;;;;;21.83;49.90;100641.63;4555181;28;20037;-63
2023/05/05 08:47:50;;;;;;;2.30;2.10;;;;;;;21.81;50.92;100635.41;4552553;28;20047;-63
2023/05/05 08:50:01;;;;;;;2.25;2.05;;;;;;;21.82;50.23;100639.94;4554114;28;20024;-63
2023/05/05 08:52:19;;;;;;;1.90;1.80;;;;;;;21.82;49.99;100639.94;4552290;28;20032;-63
2023/05/05 08:54:33;;;;;;;1.88;1.77;;;;;;;21.81;49.42;100640.31;4553680;28;20036;-62
2023/05/05 08:56:45;;;;;;;1.95;1.83;;;;;;;21.82;48.84;100639.94;4552041;28;20029;-63
2023/05/05 08:58:57;;;;;;;1.70;1.60;;;;;;;21.78;48.83;100635.31;4552550;28;20110;-63
2023/05/05 09:01:09;;;;;;;1.80;1.70;;;;;;;21.82;49.45;100645.69;4552216;28;21297;-63
2023/05/05 09:03:20;;;;;;;1.65;1.50;;;;;;;21.81;49.37;100638.28;4550890;28;20107;-63
2023/05/05 09:05:30;;;;;;;1.50;1.40;;;;;;;21.80;49.36;100639.47;4553918;28;20136;-63
2023/05/05 09:07:42;;;;;;;1.80;1.60;;;;;;;21.83;49.41;100647.38;4552605;28;20032;-63
2023/05/05 09:09:53;;;;;;;1.80;1.70;;;;;;;21.84;50.27;100648.19;4533547;28;20076;-63
2023/05/05 09:12:03;;;;;;;1.42;1.33;;;;;;;21.77;50.57;100636.53;4532881;28;20076;-63
2023/05/05 09:14:14;;;;;;;2.17;1.80;;;;;;;21.84;51.36;100649.03;4551252;28;20033;-63
2023/05/05 09:16:25;;;;;;;1.67;1.50;;;;;;;21.80;50.70;100639.47;4553529;28;20055;-62
2023/05/05 09:18:39;;;;;;;1.70;1.60;;;;;;;21.85;50.60;100644.13;4551797;28;20059;-63
2023/05/05 09:20:50;;;;;;;1.50;1.40;;;;;;;21.84;49.02;100649.03;4552530;28;20024;-63
2023/05/05 09:23:09;;;;;;;1.33;1.23;;;;;;;21.85;48.86;100639.19;4533719;28;20502;-63
2023/05/05 09:25:20;;;;;;;1.40;1.30;;;;;;;21.82;48.97;100634.19;4552569;28;20029;-63
2023/05/05 09:27:35;;;;;;;1.40;1.30;;;;;;;21.86;49.83;100640.03;4552264;28;20502;-63
2023/05/05 09:29:48;;;;;;;1.67;1.58;;;;;;;21.83;49.68;100635.03;4553796;28;20874;-63
2023/05/05 09:32:09;;;;;;;1.35;1.25;;;;;;;21.84;48.71;100634.66;4533287;28;20041;-65
2023/05/05 09:34:20;;;;;;;1.50;1.30;;;;;;;21.85;48.19;100639.19;4550236;27;20029;-65
2023/05/05 09:36:43;;;;;;;1.10;1.00;;;;;;;21.87;48.91;100642.53;4550326;28;20033;-63
2023/05/05 09:39:04;;;;;;;1.10;1.00;;;;;;;21.85;49.73;100633.44;4531879;28;20235;-64
2023/05/05 09:41:35;;;;;;;1.15;1.05;;;;;;;21.85;49.57;100639.19;4537084;28;20040;-64
2023/05/05 09:43:51;;;;;;;1.10;1.00;;;;;;;21.87;48.84;100642.53;4551186;28;20029;-64
2023/05/05 09:46:06;;;;;;;1.02;0.82;;;;;;;21.88;48.97;100631.88;4550016;28;20025;-63
2023/05/05 09:48:27;;;;;;;1.30;1.10;;;;;;;21.87;49.13;100635.94;4550088;28;20040;-64
2023/05/05 09:50:42;;;;;;;1.58;1.13;;;;;;;21.86;47.90;100629.38;4550647;28;20038;-64
2023/05/05 09:53:02;;;;;;;1.27;1.17;;;;;;;21.88;48.15;100629.00;4541602;28;20040;-64
2023/05/05 09:55:17;;;;;;;1.48;1.23;;;;;;;21.86;48.60;100629.38;4553349;28;20028;-63
2023/05/05 09:57:32;;;;;;;1.33;1.23;;;;;;;21.88;48.97;100626.13;4533156;28;20037;-64
2023/05/05 09:59:55;;;;;;;1.13;1.02;;;;;;;21.89;48.54;100631.50;4552007;28;20044;-64
2023/05/05 10:02:12;;;;;;;2.05;1.30;;;;;;;21.89;48.56;100628.63;4551371;28;20146;-64
2023/05/05 10:04:27;;;;;;;1.33;0.98;;;;;;;21.89;49.68;100627.78;4551641;28;21158;-64
2023/05/05 10:06:42;;;;;;;1.63;1.13;;;;;;;21.87;49.24;100625.28;4550342;28;20036;-64
2023/05/05 10:09:02;;;;;;;1.20;1.10;;;;;;;21.88;48.91;100620.38;4551057;28;20048;-64
2023/05/05 10:11:12;;;;;;;1.52;1.13;;;;;;;21.83;49.10;100606.31;4531923;28;20071;-64
2023/05/05 10:13:24;;;;;;;1.35;1.20;;;;;;;21.87;48.79;100619.53;4534566;28;20608;-64
2023/05/05 10:15:34;;;;;;;1.52;1.38;;;;;;;21.90;49.31;100627.41;4551954;28;20032;-64
2023/05/05 10:17:46;;;;;;;1.30;1.20;;;;;;;21.92;49.11;100627.03;4550354;28;20041;-64